KAEL

Albert Lea Municipal Airport

Albert Lea, Minnesota, USA
METAR KAEL 152215Z AUTO 28003KT 7SM -RA SCT019 SCT029 SCT049 23/23 A2991 RMK AO2 P0001
Observed Flight Rules
Aug-15 @ 22:15 UTC (12 minutes ago) Visual Flight Rules
Wind Visibility Clouds Conditions
280° at 3 knots 7 miles
  • Scattered at 1,900' AGL
  • Scattered at 2,900' AGL
  • Scattered at 4,900' AGL
  • Light Rain
Temperatures Readings Precipitation
Current 23°C / 73°F
Dewpoint 23°C / 73°F
Humidity 100%
Altimeter 29.91" Hg
Pressure 1013 hPa
Elevation 383
Current Rain 0.01
METAR KAEL 152215Z AUTO 28003KT 7SM -RA SCT019 SCT029 SCT049 23/23 A2991 RMK AO2 P0001
Observed Flight Rules
Aug-15 @ 22:15 UTC
(12 minutes ago)
VFR
Wind Visibility
280° at 3 knots 7 miles
Clouds
  • Scattered at 1,900' AGL
  • Scattered at 2,900' AGL
  • Scattered at 4,900' AGL
Conditions
  • Light Rain
Temperature Dewpoint
23°C / 73°F 23°C / 73°F
Humidity Altimeter Pressure
100% 29.91" Hg 1013 hPa
Current Rain
0.01